createdAt,value
2022-09-12T00:00:11.538Z,98429.59
2022-09-12T00:02:40.887Z,98438.38
2022-09-12T00:05:07.973Z,98427.47
2022-09-12T00:07:34.626Z,98445.94
2022-09-12T00:10:01.311Z,98444.47
2022-09-12T00:12:27.833Z,98448.53
2022-09-12T00:14:54.724Z,98439.94
2022-09-12T00:17:21.286Z,98446.78
2022-09-12T00:19:48.059Z,98442.56
2022-09-12T00:22:14.563Z,98446.00
2022-09-12T00:24:41.162Z,98449.50
2022-09-12T00:27:07.922Z,98446.22
2022-09-12T00:29:34.641Z,98456.84
2022-09-12T00:32:01.372Z,98449.34
2022-09-12T00:34:28.041Z,98453.47
2022-09-12T00:36:54.663Z,98437.34
2022-09-12T00:39:21.302Z,98455.66
2022-09-12T00:41:47.849Z,98459.09
2022-09-12T00:44:23.273Z,98459.91
2022-09-12T00:47:00.922Z,98469.34
2022-09-12T00:49:29.409Z,98461.25
2022-09-12T00:52:05.635Z,98458.25
2022-09-12T00:54:36.552Z,98454.84
2022-09-12T00:57:06.360Z,98448.41
2022-09-12T00:59:49.886Z,98452.81
2022-09-12T01:02:16.929Z,98454.31
2022-09-12T01:04:44.545Z,98457.03
2022-09-12T01:07:12.919Z,98468.13
2022-09-12T01:09:41.938Z,98465.53
2022-09-12T01:12:08.895Z,98452.81
2022-09-12T01:14:35.553Z,98458.25
2022-09-12T01:17:02.209Z,98455.28
2022-09-12T01:19:49.023Z,98454.03
2022-09-12T01:22:21.232Z,98460.19
2022-09-12T01:25:15.732Z,98452.69
2022-09-12T01:28:22.277Z,98455.94
2022-09-12T01:30:54.971Z,98451.59
2022-09-12T01:33:36.901Z,98454.03
2022-09-12T01:36:34.669Z,98460.19
2022-09-12T01:39:04.357Z,98454.31
2022-09-12T01:41:58.081Z,98451.44
2022-09-12T01:44:45.137Z,98454.28
2022-09-12T01:47:35.715Z,98455.66
2022-09-12T01:50:39.881Z,98452.66
2022-09-12T01:53:17.582Z,98444.72
2022-09-12T01:55:55.208Z,98455.00
2022-09-12T01:58:27.102Z,98448.28
2022-09-12T02:01:15.686Z,98458.66
2022-09-12T02:04:05.874Z,98456.91
2022-09-12T02:06:40.963Z,98458.25
2022-09-12T02:09:13.353Z,98452.78
2022-09-12T02:11:44.358Z,98462.47
2022-09-12T02:14:19.218Z,98454.56
2022-09-12T02:16:55.308Z,98463.44
2022-09-12T02:19:27.244Z,98461.66
2022-09-12T02:21:57.521Z,98458.78
2022-09-12T02:24:30.082Z,98453.31
2022-09-12T02:27:23.106Z,98452.47
2022-09-12T02:29:50.002Z,98460.97
2022-09-12T02:32:30.677Z,98450.81
2022-09-12T02:35:19.785Z,98453.53
2022-09-12T02:38:23.300Z,98448.91
2022-09-12T02:40:50.007Z,98444.78
2022-09-12T02:43:16.651Z,98438.47
2022-09-12T02:45:43.361Z,98437.25
2022-09-12T02:48:14.965Z,98447.22
2022-09-12T02:50:42.735Z,98432.63
2022-09-12T02:53:10.591Z,98437.69
2022-09-12T02:55:40.176Z,98432.88
2022-09-12T02:58:11.857Z,98436.59
2022-09-12T03:00:48.612Z,98438.34
2022-09-12T03:03:26.858Z,98435.72
2022-09-12T03:06:00.253Z,98433.81
2022-09-12T03:08:53.120Z,98433.00
2022-09-12T03:11:26.624Z,98440.41
2022-09-12T03:14:16.897Z,98436.44
2022-09-12T03:16:43.530Z,98434.78
2022-09-12T03:19:27.819Z,98434.91
2022-09-12T03:22:21.536Z,98434.75
2022-09-12T03:24:54.428Z,98429.50
2022-09-12T03:27:30.076Z,98432.47
2022-09-12T03:29:57.669Z,98439.63
2022-09-12T03:32:44.766Z,98442.50
2022-09-12T03:35:13.337Z,98435.78
2022-09-12T03:37:40.235Z,98445.47
2022-09-12T03:40:08.504Z,98442.28
2022-09-12T03:42:35.155Z,98443.13
2022-09-12T03:45:01.794Z,98440.66
2022-09-12T03:47:28.322Z,98442.00
2022-09-12T03:49:54.899Z,98450.78
2022-09-12T03:52:21.453Z,98437.38
2022-09-12T03:54:48.091Z,98434.34
2022-09-12T03:57:14.609Z,98440.88
2022-09-12T03:59:41.244Z,98439.78
2022-09-12T04:02:09.782Z,98438.84
2022-09-12T04:04:36.334Z,98435.97
2022-09-12T04:07:02.880Z,98437.72
2022-09-12T04:09:29.933Z,98433.31
2022-09-12T04:11:56.397Z,98431.94
2022-09-12T04:14:23.004Z,98431.75
2022-09-12T04:16:49.802Z,98440.72
2022-09-12T04:19:16.449Z,98434.75
2022-09-12T04:21:43.032Z,98438.88
2022-09-12T04:24:09.597Z,98438.59
2022-09-12T04:26:36.121Z,98443.38
2022-09-12T04:29:02.752Z,98441.78
2022-09-12T04:31:29.438Z,98440.66
2022-09-12T04:34:00.788Z,98434.75
2022-09-12T04:36:29.028Z,98438.31
2022-09-12T04:38:56.305Z,98441.59
2022-09-12T04:41:31.520Z,98440.53
2022-09-12T04:44:04.206Z,98441.22
2022-09-12T04:46:34.016Z,98435.72
2022-09-12T04:49:00.612Z,98437.53
2022-09-12T04:51:30.173Z,98451.63
2022-09-12T04:53:59.549Z,98452.63
2022-09-12T04:56:27.214Z,98434.06
2022-09-12T04:58:54.116Z,98454.31
2022-09-12T05:01:23.102Z,98452.13
2022-09-12T05:03:50.744Z,98450.03
2022-09-12T05:06:20.623Z,98453.78
2022-09-12T05:08:47.493Z,98456.97
2022-09-12T05:11:18.102Z,98459.03
2022-09-12T05:13:46.472Z,98460.34
2022-09-12T05:16:15.343Z,98460.47
2022-09-12T05:18:43.152Z,98456.09
2022-09-12T05:21:12.717Z,98459.06
2022-09-12T05:23:39.322Z,98459.06
2022-09-12T05:26:07.190Z,98462.75
2022-09-12T05:28:38.373Z,98461.41
2022-09-12T05:31:12.192Z,98469.78
2022-09-12T05:33:40.849Z,98465.03
2022-09-12T05:36:14.035Z,98469.59
2022-09-12T05:38:40.853Z,98470.91
2022-09-12T05:41:16.656Z,98476.38
2022-09-12T05:43:45.850Z,98482.44
2022-09-12T05:46:16.557Z,98481.94
2022-09-12T05:48:44.887Z,98491.38
2022-09-12T05:51:36.039Z,98485.16
2022-09-12T05:54:04.506Z,98491.38
2022-09-12T05:56:34.325Z,98488.31
2022-09-12T05:59:03.780Z,98485.91
2022-09-12T06:01:33.276Z,98482.88
2022-09-12T06:04:02.074Z,98485.38
2022-09-12T06:06:30.536Z,98471.72
2022-09-12T06:09:00.078Z,98480.38
2022-09-12T06:11:32.055Z,98483.03
2022-09-12T06:14:00.024Z,98481.19
2022-09-12T06:16:29.052Z,98482.16
2022-09-12T06:18:58.205Z,98483.41
2022-09-12T06:21:26.570Z,98479.03
2022-09-12T06:23:56.978Z,98484.25
2022-09-12T06:26:25.719Z,98484.00
2022-09-12T06:28:54.022Z,98481.00
2022-09-12T06:31:25.788Z,98480.50
2022-09-12T06:33:54.128Z,98475.97
2022-09-12T06:36:25.711Z,98476.81
2022-09-12T06:39:00.993Z,98472.44
2022-09-12T06:41:29.597Z,98469.56
2022-09-12T06:43:56.180Z,98473.09
2022-09-12T06:46:23.255Z,98469.16
2022-09-12T06:48:50.522Z,98472.19
2022-09-12T06:51:20.008Z,98475.34
2022-09-12T06:53:48.007Z,98470.69
2022-09-12T06:56:22.492Z,98472.19
2022-09-12T06:58:51.290Z,98467.53
2022-09-12T07:01:25.287Z,98464.56
2022-09-12T07:03:59.050Z,98461.97
2022-09-12T07:06:31.746Z,98460.97
2022-09-12T07:08:59.625Z,98464.44
2022-09-12T07:11:29.086Z,98462.50
2022-09-12T07:13:56.822Z,98459.50
2022-09-12T07:16:24.264Z,98469.50
2022-09-12T07:18:52.959Z,98469.34
2022-09-12T07:21:20.122Z,98467.72
2022-09-12T07:23:47.363Z,98458.41
2022-09-12T07:26:15.650Z,98461.69
2022-09-12T07:28:43.083Z,98465.53
2022-09-12T07:31:15.350Z,98455.66
2022-09-12T07:33:43.227Z,98451.97
2022-09-12T07:36:14.664Z,98462.09
2022-09-12T07:38:42.429Z,98457.34
2022-09-12T07:41:33.778Z,98456.41
2022-09-12T07:44:01.908Z,98456.25
2022-09-12T07:46:30.111Z,98453.81
2022-09-12T07:48:58.789Z,98442.16
2022-09-12T07:51:27.351Z,98451.06
2022-09-12T07:53:54.226Z,98447.91
2022-09-12T07:56:22.575Z,98447.75
2022-09-12T07:58:50.709Z,98454.19
2022-09-12T08:01:23.446Z,98444.47
2022-09-12T08:03:54.875Z,98455.97
2022-09-12T08:06:25.519Z,98441.56
2022-09-12T08:08:54.315Z,98445.53
2022-09-12T08:11:22.232Z,98450.31
2022-09-12T08:13:54.336Z,98434.84
2022-09-12T08:16:23.662Z,98441.50
2022-09-12T08:18:51.258Z,98439.84
2022-09-12T08:21:20.866Z,98438.97
2022-09-12T08:23:51.899Z,98445.56
2022-09-12T08:26:18.479Z,98439.69
2022-09-12T08:28:46.089Z,98442.13
2022-09-12T08:31:14.984Z,98447.88
2022-09-12T08:33:41.525Z,98443.06
2022-09-12T08:36:22.894Z,98442.22
2022-09-12T08:38:57.372Z,98444.63
2022-09-12T08:41:31.165Z,98436.25
2022-09-12T08:44:09.307Z,98416.81
2022-09-12T08:47:17.816Z,98444.25
2022-09-12T08:50:00.672Z,98450.00
2022-09-12T08:52:33.483Z,98462.97
2022-09-12T08:55:01.942Z,98459.56
2022-09-12T08:57:28.576Z,98457.16
2022-09-12T08:59:55.897Z,98457.56
2022-09-12T09:02:36.315Z,98449.91
2022-09-12T09:05:15.215Z,98447.66
2022-09-12T09:07:42.150Z,98450.88
2022-09-12T09:10:23.497Z,98448.50
2022-09-12T09:13:12.742Z,98457.38
2022-09-12T09:16:03.966Z,98456.09
2022-09-12T09:18:35.148Z,98451.25
2022-09-12T09:21:08.898Z,98461.22
2022-09-12T09:23:46.778Z,98449.28
2022-09-12T09:26:30.455Z,98451.00
2022-09-12T09:29:02.458Z,98448.03
2022-09-12T09:31:35.751Z,98451.91
2022-09-12T09:34:13.098Z,98449.56
2022-09-12T09:36:49.409Z,98450.97
2022-09-12T09:39:53.218Z,98449.66
2022-09-12T09:42:50.332Z,98448.09
2022-09-12T09:45:20.759Z,98445.19
2022-09-12T09:47:54.500Z,98436.72
2022-09-12T09:50:21.311Z,98423.13
2022-09-12T09:52:50.655Z,98429.34
2022-09-12T09:55:23.345Z,98424.84
2022-09-12T09:57:51.100Z,98429.22
2022-09-12T10:00:27.706Z,98424.34
2022-09-12T10:03:26.817Z,98422.72
2022-09-12T10:05:57.132Z,98416.50
2022-09-12T10:08:31.642Z,98416.06
2022-09-12T10:11:01.934Z,98419.19
2022-09-12T10:13:41.839Z,98418.75
2022-09-12T10:16:29.237Z,98410.75
2022-09-12T10:19:00.598Z,98409.28
2022-09-12T10:21:32.030Z,98403.78
2022-09-12T10:24:03.711Z,98403.28
2022-09-12T10:26:37.546Z,98394.44
2022-09-12T10:29:15.463Z,98392.63
2022-09-12T10:31:57.518Z,98398.38
2022-09-12T10:34:32.355Z,98391.69
2022-09-12T10:37:02.870Z,98387.59
2022-09-12T10:39:31.028Z,98389.56
2022-09-12T10:41:57.522Z,98385.81
2022-09-12T10:44:33.039Z,98381.56
2022-09-12T10:47:19.381Z,98377.94
2022-09-12T10:49:46.084Z,98380.88
2022-09-12T10:52:24.337Z,98370.88
2022-09-12T10:54:51.882Z,98376.09
2022-09-12T10:58:02.863Z,98370.84
2022-09-12T11:00:32.114Z,98373.78
2022-09-12T11:03:24.774Z,98364.16
2022-09-12T11:06:01.687Z,98366.44
2022-09-12T11:08:49.496Z,98360.56
2022-09-12T11:11:47.251Z,98372.47
2022-09-12T11:14:49.741Z,98359.34
2022-09-12T11:17:42.218Z,98365.34
2022-09-12T11:20:13.518Z,98366.13
2022-09-12T11:22:58.420Z,98366.44
2022-09-12T11:25:43.331Z,98369.66
2022-09-12T11:28:24.998Z,98354.06
2022-09-12T11:31:13.460Z,98367.50
2022-09-12T11:33:46.308Z,98356.66
2022-09-12T11:36:39.040Z,98356.13
2022-09-12T11:39:17.313Z,98356.31
2022-09-12T11:41:49.856Z,98354.97
2022-09-12T11:44:25.503Z,98346.16
2022-09-12T11:46:52.414Z,98357.75
2022-09-12T11:49:55.034Z,98351.63
2022-09-12T11:52:29.178Z,98350.13
2022-09-12T11:55:08.491Z,98343.53
2022-09-12T11:57:49.241Z,98346.72
2022-09-12T12:00:20.175Z,98338.84
2022-09-12T12:03:26.691Z,98332.63
2022-09-12T12:05:54.511Z,98334.25
2022-09-12T12:08:23.296Z,98337.63
2022-09-12T12:11:02.109Z,98325.06
2022-09-12T12:13:34.164Z,98316.31
2022-09-12T12:16:14.814Z,98315.72
2022-09-12T12:18:43.595Z,98317.16
2022-09-12T12:21:32.106Z,98320.81
2022-09-12T12:24:07.693Z,98322.81
2022-09-12T12:26:40.614Z,98314.25
2022-09-12T12:29:44.245Z,98304.38
2022-09-12T12:32:11.050Z,98315.19
2022-09-12T12:34:43.116Z,98312.09
2022-09-12T12:37:30.028Z,98304.59
2022-09-12T12:40:21.406Z,98304.59
2022-09-12T12:42:47.960Z,98293.38
2022-09-12T12:45:17.898Z,98298.53
2022-09-12T12:47:47.612Z,98282.25
2022-09-12T12:50:26.119Z,98293.91
2022-09-12T12:52:54.938Z,98293.53
2022-09-12T12:55:45.739Z,98285.56
2022-09-12T12:58:27.412Z,98294.34
2022-09-12T13:01:17.033Z,98290.16
2022-09-12T13:03:47.061Z,98284.63
2022-09-12T13:06:31.449Z,98276.94
2022-09-12T13:09:32.887Z,98275.47
2022-09-12T13:12:08.573Z,98269.09
2022-09-12T13:14:47.710Z,98257.84
2022-09-12T13:17:17.577Z,98264.16
2022-09-12T13:19:44.353Z,98262.00
2022-09-12T13:22:10.875Z,98262.59
2022-09-12T13:24:52.073Z,98248.72
2022-09-12T13:27:23.920Z,98252.59
2022-09-12T13:30:05.327Z,98248.53
2022-09-12T13:32:32.401Z,98246.47
2022-09-12T13:35:35.898Z,98240.19
2022-09-12T13:38:33.108Z,98247.09
2022-09-12T13:41:20.667Z,98242.69
2022-09-12T13:43:48.244Z,98232.81
2022-09-12T13:46:23.870Z,98236.91
2022-09-12T13:48:50.590Z,98236.94
2022-09-12T13:51:27.459Z,98231.00
2022-09-12T13:53:57.802Z,98217.16
2022-09-12T13:56:24.417Z,98221.53
2022-09-12T13:59:02.483Z,98208.75
2022-09-12T14:01:41.039Z,98212.91
2022-09-12T14:04:35.901Z,98211.25
2022-09-12T14:07:11.606Z,98207.50
2022-09-12T14:09:41.771Z,98208.84
2022-09-12T14:12:32.381Z,98211.50
2022-09-12T14:14:59.146Z,98200.19
2022-09-12T14:17:35.573Z,98204.16
2022-09-12T14:20:23.545Z,98193.09
2022-09-12T14:22:53.559Z,98198.59
2022-09-12T14:25:23.622Z,98187.13
2022-09-12T14:27:54.008Z,98201.66
2022-09-12T14:30:20.498Z,98200.47
2022-09-12T14:33:11.805Z,98197.88
2022-09-12T14:35:49.453Z,98189.09
2022-09-12T14:38:15.984Z,98192.38
2022-09-12T14:40:46.310Z,98186.47
2022-09-12T14:43:26.893Z,98183.97
2022-09-12T14:45:56.255Z,98178.97
2022-09-12T14:48:23.252Z,98173.47
2022-09-12T14:50:52.209Z,98174.88
2022-09-12T14:53:18.745Z,98170.88
2022-09-12T14:55:57.973Z,98170.84
2022-09-12T14:58:28.243Z,98167.00
2022-09-12T15:01:21.852Z,98156.84
2022-09-12T15:03:51.678Z,98161.44
2022-09-12T15:06:30.900Z,98155.72
2022-09-12T15:09:02.155Z,98162.28
2022-09-12T15:11:28.824Z,98155.63
2022-09-12T15:13:55.406Z,98140.63
2022-09-12T15:16:22.173Z,98149.72
2022-09-12T15:18:48.798Z,98140.09
2022-09-12T15:21:20.455Z,98151.34
2022-09-12T15:23:49.445Z,98152.00
2022-09-12T15:26:22.591Z,98154.25
2022-09-12T15:28:50.748Z,98153.84
2022-09-12T15:31:25.661Z,98144.31
2022-09-12T15:33:53.104Z,98155.69
2022-09-12T15:36:21.686Z,98153.06
2022-09-12T15:38:49.254Z,98142.09
2022-09-12T15:41:26.747Z,98154.50
2022-09-12T15:43:53.660Z,98150.88
2022-09-12T15:46:20.237Z,98143.16
2022-09-12T15:48:46.989Z,98143.16
2022-09-12T15:51:19.449Z,98152.09
2022-09-12T15:53:47.730Z,98149.28
2022-09-12T15:56:16.805Z,98150.88
2022-09-12T15:58:57.609Z,98141.31
2022-09-12T16:01:25.365Z,98152.63
2022-09-12T16:03:52.105Z,98151.00
2022-09-12T16:06:18.820Z,98142.47
2022-09-12T16:08:45.566Z,98140.00
2022-09-12T16:11:21.372Z,98148.28
2022-09-12T16:13:48.908Z,98150.03
2022-09-12T16:16:15.713Z,98137.84
2022-09-12T16:18:42.543Z,98146.09
2022-09-12T16:21:14.218Z,98137.34
2022-09-12T16:23:46.638Z,98139.97
2022-09-12T16:26:13.804Z,98136.22
2022-09-12T16:28:40.990Z,98144.22
2022-09-12T16:31:10.301Z,98132.44
2022-09-12T16:33:38.685Z,98141.91
2022-09-12T16:36:11.326Z,98139.78
2022-09-12T16:38:45.969Z,98141.03
2022-09-12T16:41:13.873Z,98133.34
2022-09-12T16:43:40.873Z,98128.13
2022-09-12T16:46:16.108Z,98136.56
2022-09-12T16:48:49.333Z,98134.19
2022-09-12T16:51:20.636Z,98137.75
2022-09-12T16:53:48.215Z,98136.00
2022-09-12T16:56:15.513Z,98138.44
2022-09-12T16:58:42.742Z,98140.47
2022-09-12T17:01:15.553Z,98136.53
2022-09-12T17:03:42.813Z,98138.66
2022-09-12T17:06:15.161Z,98131.56
2022-09-12T17:08:44.742Z,98131.63
2022-09-12T17:11:13.546Z,98142.41
2022-09-12T17:14:03.219Z,98140.41
2022-09-12T17:16:28.950Z,98144.84
2022-09-12T17:18:55.728Z,98132.72
2022-09-12T17:21:25.652Z,98139.66
2022-09-12T17:23:52.225Z,98145.00
2022-09-12T17:26:18.921Z,98147.63
2022-09-12T17:28:45.684Z,98146.00
2022-09-12T17:31:14.658Z,98146.34
2022-09-12T17:33:42.144Z,98152.69
2022-09-12T17:36:15.384Z,98162.81
2022-09-12T17:38:45.167Z,98163.00
2022-09-12T17:41:21.300Z,98161.84
2022-09-12T17:43:55.604Z,98155.41
2022-09-12T17:46:27.077Z,98161.88
2022-09-12T17:48:56.342Z,98166.78
2022-09-12T17:51:25.960Z,98164.16
2022-09-12T17:53:59.071Z,98161.41
2022-09-12T17:56:27.919Z,98162.13
2022-09-12T17:58:55.772Z,98169.84
2022-09-12T18:01:41.666Z,98169.53
2022-09-12T18:04:10.590Z,98185.53
2022-09-12T18:06:37.681Z,98183.91
2022-09-12T18:09:07.367Z,98177.56
2022-09-12T18:11:34.071Z,98186.84
2022-09-12T18:14:01.322Z,98178.88
2022-09-12T18:16:28.630Z,98201.94
2022-09-12T18:18:55.618Z,98202.75
2022-09-12T18:21:22.243Z,98209.47
2022-09-12T18:23:48.886Z,98206.56
2022-09-12T18:26:15.568Z,98207.91
2022-09-12T18:28:44.407Z,98204.00
2022-09-12T18:31:14.084Z,98220.50
2022-09-12T18:33:41.461Z,98217.25
2022-09-12T18:36:10.303Z,98227.56
2022-09-12T18:38:37.732Z,98226.88
2022-09-12T18:41:10.241Z,98234.13
2022-09-12T18:43:37.380Z,98229.09
2022-09-12T18:46:12.225Z,98229.25
2022-09-12T18:48:39.485Z,98230.56
2022-09-12T18:51:08.025Z,98242.84
2022-09-12T18:53:35.401Z,98238.41
2022-09-12T18:56:08.629Z,98237.78
2022-09-12T18:58:42.689Z,98246.09
2022-09-12T19:01:21.430Z,98255.16
2022-09-12T19:03:48.553Z,98247.28
2022-09-12T19:06:20.674Z,98257.78
2022-09-12T19:08:48.785Z,98249.72
2022-09-12T19:11:15.840Z,98251.19
2022-09-12T19:13:44.739Z,98262.84
2022-09-12T19:16:16.798Z,98271.16
2022-09-12T19:18:43.673Z,98262.97
2022-09-12T19:21:24.607Z,98271.16
2022-09-12T19:23:52.655Z,98276.38
2022-09-12T19:26:21.262Z,98269.84
2022-09-12T19:28:48.420Z,98276.56
2022-09-12T19:31:19.039Z,98270.31
2022-09-12T19:33:46.783Z,98272.47
2022-09-12T19:36:34.110Z,98273.44
2022-09-12T19:39:02.264Z,98274.91
2022-09-12T19:41:28.890Z,98273.13
2022-09-12T19:43:56.438Z,98275.22
2022-09-12T19:46:24.618Z,98288.13
2022-09-12T19:48:52.653Z,98286.53
2022-09-12T19:51:21.134Z,98295.34
2022-09-12T19:53:50.061Z,98293.06
2022-09-12T19:56:16.601Z,98292.72
2022-09-12T19:58:45.295Z,98283.25
2022-09-12T20:01:13.202Z,98295.00
2022-09-12T20:03:40.730Z,98298.75
2022-09-12T20:06:09.385Z,98301.22
2022-09-12T20:08:37.838Z,98299.91
2022-09-12T20:11:04.573Z,98297.78
2022-09-12T20:13:31.147Z,98303.81
2022-09-12T20:16:07.951Z,98297.94
2022-09-12T20:18:35.072Z,98298.94
2022-09-12T20:21:24.959Z,98299.56
2022-09-12T20:23:51.758Z,98296.63
2022-09-12T20:26:20.200Z,98303.03
2022-09-12T20:28:47.062Z,98295.97
2022-09-12T20:31:15.757Z,98307.56
2022-09-12T20:33:42.869Z,98312.59
2022-09-12T20:36:12.395Z,98314.06
2022-09-12T20:38:39.710Z,98322.22
2022-09-12T20:41:09.830Z,98313.69
2022-09-12T20:43:38.584Z,98321.38
2022-09-12T20:46:10.286Z,98330.69
2022-09-12T20:48:37.889Z,98330.22
2022-09-12T20:51:05.199Z,98332.66
2022-09-12T20:53:35.005Z,98327.94
2022-09-12T20:56:03.360Z,98317.19
2022-09-12T20:58:29.942Z,98309.34
2022-09-12T21:00:57.246Z,98315.69
2022-09-12T21:03:25.397Z,98323.88
2022-09-12T21:05:52.427Z,98306.38
2022-09-12T21:08:18.949Z,98324.53
2022-09-12T21:10:45.548Z,98316.81
2022-09-12T21:13:13.789Z,98311.59
2022-09-12T21:15:41.641Z,98313.22
2022-09-12T21:18:08.695Z,98308.66
2022-09-12T21:20:35.363Z,98313.31
2022-09-12T21:23:02.293Z,98327.03
2022-09-12T21:25:29.656Z,98315.72
2022-09-12T21:27:56.419Z,98323.72
2022-09-12T21:30:23.181Z,98328.25
2022-09-12T21:32:49.686Z,98314.34
2022-09-12T21:35:16.676Z,98316.81
2022-09-12T21:37:43.166Z,98312.53
2022-09-12T21:40:10.209Z,98312.38
2022-09-12T21:42:36.805Z,98322.97
2022-09-12T21:45:03.531Z,98312.69
2022-09-12T21:47:30.298Z,98316.44
2022-09-12T21:49:57.600Z,98316.03
2022-09-12T21:52:24.143Z,98311.94
2022-09-12T21:54:50.773Z,98319.00
2022-09-12T21:57:17.409Z,98316.22
2022-09-12T21:59:44.234Z,98316.38
2022-09-12T22:02:12.331Z,98321.44
2022-09-12T22:04:39.022Z,98321.59
2022-09-12T22:07:05.593Z,98312.91
2022-09-12T22:09:34.341Z,98315.41
2022-09-12T22:12:02.276Z,98319.31
2022-09-12T22:14:29.417Z,98319.31
2022-09-12T22:16:56.405Z,98310.16
2022-09-12T22:19:22.955Z,98307.75
2022-09-12T22:22:07.711Z,98316.41
2022-09-12T22:24:34.324Z,98317.75
2022-09-12T22:27:03.252Z,98325.03
2022-09-12T22:29:29.883Z,98319.84
2022-09-12T22:31:56.523Z,98301.34
2022-09-12T22:34:23.064Z,98319.94
2022-09-12T22:36:49.816Z,98320.63
2022-09-12T22:39:16.498Z,98312.47
2022-09-12T22:41:43.299Z,98320.72
2022-09-12T22:44:10.934Z,98330.63
2022-09-12T22:46:38.564Z,98316.50
2022-09-12T22:49:06.535Z,98336.44
2022-09-12T22:51:33.655Z,98335.69
2022-09-12T22:54:00.242Z,98323.06
2022-09-12T22:56:27.055Z,98330.88
2022-09-12T22:58:53.738Z,98349.38
2022-09-12T23:01:20.529Z,98350.31
2022-09-12T23:03:47.244Z,98351.06
2022-09-12T23:06:13.779Z,98333.28
2022-09-12T23:08:40.393Z,98337.75
2022-09-12T23:11:13.028Z,98341.03
2022-09-12T23:13:42.491Z,98329.06
2022-09-12T23:16:16.200Z,98335.16
2022-09-12T23:18:42.812Z,98347.00
2022-09-12T23:21:11.258Z,98343.69
2022-09-12T23:23:38.514Z,98332.63
2022-09-12T23:26:04.960Z,98342.28
2022-09-12T23:28:32.229Z,98326.13
2022-09-12T23:31:00.030Z,98331.44
2022-09-12T23:33:30.349Z,98319.81
2022-09-12T23:36:05.184Z,98325.22
2022-09-12T23:38:33.165Z,98329.38
2022-09-12T23:41:00.384Z,98338.34
2022-09-12T23:43:27.415Z,98320.69
2022-09-12T23:45:54.003Z,98337.69
2022-09-12T23:48:20.769Z,98328.81
2022-09-12T23:50:48.163Z,98329.16
2022-09-12T23:53:16.773Z,98329.47
2022-09-12T23:55:44.837Z,98328.34
2022-09-12T23:58:12.176Z,98326.72
